KFTK/FTK METAR and TAF weather

Enter ICAO airport designator
Station Type Date Time Source
KFTK METAR 2022/05/23 14:56 UTC NOAA

KFTK 231456Z AUTO 02009KT 10SM FEW027 OVC034 13/05 A3022 RMK AO2 SLP234 60000 T01260050 58002 $


Station Type Date Time Source
KFTK Decoded METAR 2022/05/23 14:56 UTC NOAA

Fort Knox, KY, United States (KFTK) 37-54N 085-58W 230M
May 23, 2022 - 10:56 AM EDT / 2022.05.23 1456 UTC
Wind: from the NNE (020 degrees) at 10 MPH (9 KT):0
Visibility: 10 mile(s):0
Sky conditions: overcast
Temperature: 54.7 F (12.6 C)
Dew Point: 41.0 F (5.0 C)
Relative Humidity: 59%
Pressure (altimeter): 30.22 in. Hg (1023 hPa)
Pressure tendency: 0.01 inches (0.2 hPa) lower than three hours ago
ob: KFTK 231456Z AUTO 02009KT 10SM FEW027 OVC034 13/05 A3022 RMK AO2 SLP234 60000 T01260050 58002
cycle: 15

Station Type Date Time Source
KFTK TAF 2022/05/23 11:03 UTC NOAA

TAF KFTK 231100Z 2311/2417 03010KT 9999 VCRA BKN035 OVC042 QNH3018INS
BECMG 2314/2315 03010G15KT 9999 NSW OVC045 QNH3020INS
BECMG 2321/2322 04008KT 9999 BKN050 QNH3025INS
BECMG 2402/2403 05006KT 9999 SCT250 QNH3028INS TX19/2321Z TN11/2411Z

Example: see airport list